Time;durP1;ratioP1;P1;durP2;ratioP2;P2;SDS_P1;SDS_P2;PMS_P1;PMS_P2;Temp;Humidity;BMP_temperature;BMP_pressure;BME280_temperature;BME280_humidity;BME280_pressure;Samples;Min_cycle;Max_cycle;Signal;HPM_P1;HPM_P2
2021/09/11 00:00:09;;;;;;;;;;;;;;;;;;5074943;28;19935;-86
2021/09/11 00:02:37;;;;;;;;;;;;;;;;;;5089011;28;19924;-85
2021/09/11 00:05:10;;;;;;;;;;;;;;;;;;5088118;28;19932;-86
2021/09/11 00:07:38;;;;;;;;;;;;;;;;;;5089037;28;19931;-87
2021/09/11 00:10:08;;;;;;;;;;;;;;;;;;5070316;28;19939;-87
2021/09/11 00:12:48;;;;;;;;;;;;;;;;;;5067214;28;19931;-87
2021/09/11 00:15:20;;;;;;;;;;;;;;;;;;5094697;28;19932;-86
2021/09/11 00:18:00;;;;;;;;;;;;;;;;;;5098066;28;20429;-86
2021/09/11 00:20:36;;;;;;;;;;;;;;;;;;5066848;28;19939;-87
2021/09/11 00:23:08;;;;;;;;;;;;;;;;;;5068744;28;19931;-88
2021/09/11 00:25:37;;;;;;;;;;;;;;;;;;5068439;28;19935;-87
2021/09/11 00:28:05;;;;;;;;;;;;;;;;;;5065955;28;20317;-86
2021/09/11 00:30:33;;;;;;;;;;;;;;;;;;5070041;28;20432;-86
2021/09/11 00:33:02;;;;;;;;;;;;;;;;;;5065980;28;20377;-87
2021/09/11 00:35:30;;;;;;;;;;;;;;;;;;5060507;28;19924;-87
2021/09/11 00:37:59;;;;;;;;;;;;;;;;;;5083603;28;19956;-86
2021/09/11 00:40:28;;;;;;;;;;;;;;;;;;5097813;28;19923;-85
2021/09/11 00:42:56;;;;;;;;;;;;;;;;;;5110573;28;19908;-86
2021/09/11 00:45:24;;;;;;;;;;;;;;;;;;5089096;28;19924;-86
2021/09/11 00:47:52;;;;;;;;;;;;;;;;;;5061252;28;20275;-85
2021/09/11 00:50:21;;;;;;;;;;;;;;;;;;5081816;28;19937;-86
2021/09/11 00:52:49;;;;;;;;;;;;;;;;;;5059474;28;19939;-86
2021/09/11 00:55:19;;;;;;;;;;;;;;;;;;5064842;28;19924;-86
2021/09/11 00:57:49;;;;;;;;;;;;;;;;;;5099683;28;19932;-88
2021/09/11 01:00:17;;;;;;;;;;;;;;;;;;5078591;28;19932;-88
2021/09/11 01:02:46;;;;;;;;;;;;;;;;;;5069379;28;19931;-87
2021/09/11 01:05:15;;;;;;;;;;;;;;;;;;5070749;28;20381;-87
2021/09/11 01:07:45;;;;;;;;;;;;;;;;;;5074750;28;19932;-87
2021/09/11 01:10:14;;;;;;;;;;;;;;;;;;5092399;28;19914;-86
2021/09/11 01:12:43;;;;;;;;;;;;;;;;;;5094666;28;20279;-86
2021/09/11 01:15:12;;;;;;;;;;;;;;;;;;5080835;28;19928;-87
2021/09/11 01:17:42;;;;;;;;;;;;;;;;;;5062021;28;20314;-86
2021/09/11 01:20:11;;;;;;;;;;;;;;;;;;5089093;28;19924;-87
2021/09/11 01:22:39;;;;;;;;;;;;;;;;;;5083675;28;20381;-85
2021/09/11 01:25:10;;;;;;;;;;;;;;;;;;5053817;28;19932;-86
2021/09/11 01:27:38;;;;;;;;;;;;;;;;;;5077183;28;20346;-87
2021/09/11 01:30:08;;;;;;;;;;;;;;;;;;5061972;28;19924;-86
2021/09/11 01:32:36;;;;;;;;;;;;;;;;;;5056342;28;19948;-87
2021/09/11 01:35:04;;;;;;;;;;;;;;;;;;5078819;28;20328;-85
2021/09/11 01:37:33;;;;;;;;;;;;;;;;;;5094207;28;20413;-86
2021/09/11 01:40:01;;;;;;;;;;;;;;;;;;5075210;28;20287;-87
2021/09/11 01:42:30;;;;;;;;;;;;;;;;;;5069004;28;19924;-86
2021/09/11 01:44:59;;;;;;;;;;;;;;;;;;5069275;28;19936;-87
2021/09/11 01:47:27;;;;;;;;;;;;;;;;;;5077302;28;19936;-86
2021/09/11 01:49:55;;;;;;;;;;;;;;;;;;5085404;28;19932;-87
2021/09/11 01:52:24;;;;;;;;;;;;;;;;;;5080554;28;19931;-87
2021/09/11 01:54:52;;;;;;;;;;;;;;;;;;5083489;28;19928;-85
2021/09/11 01:57:20;;;;;;;;;;;;;;;;;;5080427;28;20401;-86
2021/09/11 01:59:50;;;;;;;;;;;;;;;;;;5065454;28;20376;-87
2021/09/11 02:02:18;;;;;;;;;;;;;;;;;;5092744;28;19924;-86
2021/09/11 02:04:46;;;;;;;;;;;;;;;;;;5092239;28;19931;-87
2021/09/11 02:07:14;;;;;;;;;;;;;;;;;;5074961;28;19924;-84
2021/09/11 02:09:43;;;;;;;;;;;;;;;;;;5078991;28;19935;-88
2021/09/11 02:12:11;;;;;;;;;;;;;;;;;;5108660;28;19924;-85
2021/09/11 02:14:39;;;;;;;;;;;;;;;;;;5075503;28;19931;-87
2021/09/11 02:17:09;;;;;;;;;;;;;;;;;;5091027;28;19924;-86
2021/09/11 02:19:37;;;;;;;;;;;;;;;;;;5088004;28;19931;-87
2021/09/11 02:22:06;;;;;;;;;;;;;;;;;;5080991;28;19924;-87
2021/09/11 02:24:34;;;;;;;;;;;;;;;;;;5091973;27;20309;-86
2021/09/11 02:27:03;;;;;;;;;;;;;;;;;;5087444;28;19928;-87
2021/09/11 02:29:31;;;;;;;;;;;;;;;;;;5064429;28;19928;-86
2021/09/11 02:32:01;;;;;;;;;;;;;;;;;;5091362;28;19924;-87
2021/09/11 02:34:32;;;;;;;;;;;;;;;;;;5085409;28;20315;-86
2021/09/11 02:37:00;;;;;;;;;;;;;;;;;;5066985;28;19928;-85
2021/09/11 02:39:28;;;;;;;;;;;;;;;;;;5081007;28;20390;-84
2021/09/11 02:41:57;;;;;;;;;;;;;;;;;;5059367;28;19924;-86
2021/09/11 02:44:25;;;;;;;;;;;;;;;;;;5061949;28;19932;-86
2021/09/11 02:46:53;;;;;;;;;;;;;;;;;;5069845;28;19928;-86
2021/09/11 02:49:21;;;;;;;;;;;;;;;;;;5072907;28;20320;-85
2021/09/11 02:51:51;;;;;;;;;;;;;;;;;;5064913;28;20310;-86
2021/09/11 02:54:19;;;;;;;;;;;;;;;;;;5088354;28;19924;-85
2021/09/11 02:56:47;;;;;;;;;;;;;;;;;;5097821;27;19939;-86
2021/09/11 02:59:16;;;;;;;;;;;;;;;;;;5069541;28;20272;-86
2021/09/11 03:01:44;;;;;;;;;;;;;;;;;;5070008;28;20398;-85
2021/09/11 03:04:12;;;;;;;;;;;;;;;;;;5057565;28;19924;-86
2021/09/11 03:06:41;;;;;;;;;;;;;;;;;;5081278;28;19928;-86
2021/09/11 03:09:10;;;;;;;;;;;;;;;;;;5083323;28;19924;-86
2021/09/11 03:11:40;;;;;;;;;;;;;;;;;;5061875;28;19931;-87
2021/09/11 03:14:08;;;;;;;;;;;;;;;;;;5078117;28;19924;-86
2021/09/11 03:16:36;;;;;;;;;;;;;;;;;;5095724;28;19927;-86
2021/09/11 03:19:04;;;;;;;;;;;;;;;;;;5079874;28;20291;-87
2021/09/11 03:21:33;;;;;;;;;;;;;;;;;;5086500;28;19924;-87
2021/09/11 03:24:01;;;;;;;;;;;;;;;;;;5066596;28;19931;-86
2021/09/11 03:26:31;;;;;;;;;;;;;;;;;;5069763;28;20330;-87
2021/09/11 03:29:00;;;;;;;;;;;;;;;;;;5066852;28;19935;-85
2021/09/11 03:31:28;;;;;;;;;;;;;;;;;;5074240;28;19924;-85
2021/09/11 03:33:56;;;;;;;;;;;;;;;;;;5096155;28;19922;-86
2021/09/11 03:36:24;;;;;;;;;;;;;;;;;;5077326;28;20178;-87
2021/09/11 03:38:53;;;;;;;;;;;;;;;;;;5074425;28;19928;-86
2021/09/11 03:41:21;;;;;;;;;;;;;;;;;;5071428;28;19924;-86
2021/09/11 03:43:50;;;;;;;;;;;;;;;;;;5071145;28;19932;-87
2021/09/11 03:46:19;;;;;;;;;;;;;;;;;;5093658;28;19924;-86
2021/09/11 03:48:47;;;;;;;;;;;;;;;;;;5089844;28;19924;-87
2021/09/11 03:51:15;;;;;;;;;;;;;;;;;;5069919;28;19931;-87
2021/09/11 03:53:44;;;;;;;;;;;;;;;;;;5075379;28;19931;-87
2021/09/11 03:56:12;;;;;;;;;;;;;;;;;;5063701;28;20378;-87
2021/09/11 03:58:40;;;;;;;;;;;;;;;;;;5080482;28;20401;-87
2021/09/11 04:01:10;;;;;;;;;;;;;;;;;;5071768;28;19947;-87
2021/09/11 04:03:38;;;;;;;;;;;;;;;;;;5071568;28;20408;-86
2021/09/11 04:06:06;;;;;;;;;;;;;;;;;;5086125;28;20002;-87
2021/09/11 04:08:35;;;;;;;;;;;;;;;;;;5079172;28;19929;-85
2021/09/11 04:11:03;;;;;;;;;;;;;;;;;;5070577;28;19924;-87
2021/09/11 04:13:31;;;;;;;;;;;;;;;;;;5106375;28;19924;-87
2021/09/11 04:16:00;;;;;;;;;;;;;;;;;;5073027;28;19928;-88
2021/09/11 04:18:29;;;;;;;;;;;;;;;;;;5085280;28;19925;-87
2021/09/11 04:20:58;;;;;;;;;;;;;;;;;;5086581;28;19928;-87
2021/09/11 04:23:26;;;;;;;;;;;;;;;;;;5072718;28;19924;-87
2021/09/11 04:25:54;;;;;;;;;;;;;;;;;;5072607;28;20361;-86
2021/09/11 04:28:22;;;;;;;;;;;;;;;;;;5070525;28;19931;-86
2021/09/11 04:30:50;;;;;;;;;;;;;;;;;;5088093;28;19924;-87
2021/09/11 04:33:19;;;;;;;;;;;;;;;;;;5087594;28;19931;-85
2021/09/11 04:35:48;;;;;;;;;;;;;;;;;;5072831;28;19931;-85
2021/09/11 04:38:16;;;;;;;;;;;;;;;;;;5072911;28;20370;-85
2021/09/11 04:40:45;;;;;;;;;;;;;;;;;;5088152;28;19928;-84
2021/09/11 04:43:17;;;;;;;;;;;;;;;;;;5090250;28;19924;-85
2021/09/11 04:45:45;;;;;;;;;;;;;;;;;;5091173;28;19928;-86
2021/09/11 04:48:13;;;;;;;;;;;;;;;;;;5070961;28;19935;-86
2021/09/11 04:50:42;;;;;;;;;;;;;;;;;;5072105;28;19928;-86
2021/09/11 04:53:11;;;;;;;;;;;;;;;;;;5089600;28;19924;-87
2021/09/11 04:55:39;;;;;;;;;;;;;;;;;;5072154;28;20033;-87
2021/09/11 04:58:07;;;;;;;;;;;;;;;;;;5089303;28;20402;-85
2021/09/11 05:00:36;;;;;;;;;;;;;;;;;;5087953;28;19932;-86
2021/09/11 05:03:04;;;;;;;;;;;;;;;;;;5068478;28;19933;-86
2021/09/11 05:05:32;;;;;;;;;;;;;;;;;;5070985;28;19924;-86
2021/09/11 05:08:00;;;;;;;;;;;;;;;;;;5085000;28;19931;-87
2021/09/11 05:10:31;;;;;;;;;;;;;;;;;;5076545;28;19924;-86
2021/09/11 05:12:59;;;;;;;;;;;;;;;;;;5075553;28;19924;-86
2021/09/11 05:15:28;;;;;;;;;;;;;;;;;;5070838;28;20267;-86
2021/09/11 05:17:56;;;;;;;;;;;;;;;;;;5105540;28;19940;-86
2021/09/11 05:20:24;;;;;;;;;;;;;;;;;;5089171;28;19924;-85
2021/09/11 05:22:54;;;;;;;;;;;;;;;;;;5094101;28;19982;-86
2021/09/11 05:25:22;;;;;;;;;;;;;;;;;;5093348;28;19925;-86
2021/09/11 05:27:52;;;;;;;;;;;;;;;;;;5116977;28;19920;-86
2021/09/11 05:30:20;;;;;;;;;;;;;;;;;;5101561;28;19915;-86
2021/09/11 05:32:48;;;;;;;;;;;;;;;;;;5101293;28;19995;-87
2021/09/11 05:35:17;;;;;;;;;;;;;;;;;;5076898;28;19924;-89
2021/09/11 05:37:45;;;;;;;;;;;;;;;;;;5074022;28;19928;-88
2021/09/11 05:40:14;;;;;;;;;;;;;;;;;;5074514;28;19924;-89
2021/09/11 05:42:42;;;;;;;;;;;;;;;;;;5075735;28;20299;-89
2021/09/11 05:45:12;;;;;;;;;;;;;;;;;;5075737;28;19924;-90
2021/09/11 05:47:40;;;;;;;;;;;;;;;;;;5092867;28;19924;-88
2021/09/11 05:50:10;;;;;;;;;;;;;;;;;;5070707;28;20393;-89
2021/09/11 05:52:38;;;;;;;;;;;;;;;;;;5089650;28;19924;-89
2021/09/11 05:55:07;;;;;;;;;;;;;;;;;;5070332;28;19932;-88
2021/09/11 05:57:35;;;;;;;;;;;;;;;;;;5073930;28;19924;-88
2021/09/11 06:00:04;;;;;;;;;;;;;;;;;;5091054;28;19930;-88
2021/09/11 06:02:41;;;;;;;;;;;;;;;;;;5102929;28;19924;-86
2021/09/11 06:05:09;;;;;;;;;;;;;;;;;;5074202;28;19932;-87
2021/09/11 06:07:38;;;;;;;;;;;;;;;;;;5087824;28;19932;-88
2021/09/11 06:10:06;;;;;;;;;;;;;;;;;;5101275;27;20393;-86
2021/09/11 06:12:35;;;;;;;;;;;;;;;;;;5068516;28;20294;-86
2021/09/11 06:15:04;;;;;;;;;;;;;;;;;;5071691;28;19924;-86
2021/09/11 06:17:32;;;;;;;;;;;;;;;;;;5083114;28;19924;-84
2021/09/11 06:20:02;;;;;;;;;;;;;;;;;;5090563;28;19931;-86
2021/09/11 06:22:30;;;;;;;;;;;;;;;;;;5076133;28;19939;-86
2021/09/11 06:24:59;;;;;;;;;;;;;;;;;;5072220;28;19924;-87
2021/09/11 06:27:27;;;;;;;;;;;;;;;;;;5073070;28;20398;-85
2021/09/11 06:29:55;;;;;;;;;;;;;;;;;;5089347;28;20316;-85
2021/09/11 06:32:23;;;;;;;;;;;;;;;;;;5090840;28;19928;-86
2021/09/11 06:34:52;;;;;;;;;;;;;;;;;;5069165;28;19932;-86
2021/09/11 06:37:21;;;;;;;;;;;;;;;;;;5080165;28;19935;-86
2021/09/11 06:39:50;;;;;;;;;;;;;;;;;;5077511;28;19939;-84
2021/09/11 06:42:19;;;;;;;;;;;;;;;;;;5074572;28;19925;-83
2021/09/11 06:44:48;;;;;;;;;;;;;;;;;;5072466;28;19995;-84
2021/09/11 06:47:16;;;;;;;;;;;;;;;;;;5092144;28;19931;-83
2021/09/11 06:49:44;;;;;;;;;;;;;;;;;;5094204;28;19924;-85
2021/09/11 06:52:12;;;;;;;;;;;;;;;;;;5076570;28;19924;-82
2021/09/11 06:54:42;;;;;;;;;;;;;;;;;;5092686;28;20390;-84
2021/09/11 06:57:10;;;;;;;;;;;;;;;;;;5086479;28;19924;-83
2021/09/11 06:59:38;;;;;;;;;;;;;;;;;;5092881;28;19924;-85
2021/09/11 07:02:06;;;;;;;;;;;;;;;;;;5067715;28;19924;-85
2021/09/11 07:04:35;;;;;;;;;;;;;;;;;;5078471;28;19928;-84
2021/09/11 07:07:03;;;;;;;;;;;;;;;;;;5094188;28;19931;-85
2021/09/11 07:09:31;;;;;;;;;;;;;;;;;;5092928;28;19939;-81
2021/09/11 07:12:01;;;;;;;;;;;;;;;;;;5079294;28;19924;-83
2021/09/11 07:14:29;;;;;;;;;;;;;;;;;;5072238;28;20646;-83
2021/09/11 07:16:58;;;;;;;;;;;;;;;;;;5075254;28;19928;-80
2021/09/11 07:19:28;;;;;;;;;;;;;;;;;;5089593;28;19924;-80
2021/09/11 07:21:56;;;;;;;;;;;;;;;;;;5078883;28;19928;-80
2021/09/11 07:24:25;;;;;;;;;;;;;;;;;;5070475;28;19935;-81
2021/09/11 07:26:53;;;;;;;;;;;;;;;;;;5107048;27;19930;-81
2021/09/11 07:29:23;;;;;;;;;;;;;;;;;;5063592;28;19931;-82
2021/09/11 07:31:51;;;;;;;;;;;;;;;;;;5050240;28;20488;-80
2021/09/11 07:34:19;;;;;;;;;;;;;;;;;;5059660;28;23265;-80
2021/09/11 07:36:47;;;;;;;;;;;;;;;;;;5084496;28;19924;-79
2021/09/11 07:39:16;;;;;;;;;;;;;;;;;;5086059;28;19931;-79
2021/09/11 07:41:44;;;;;;;;;;;;;;;;;;5085800;28;19932;-81
2021/09/11 07:44:12;;;;;;;;;;;;;;;;;;5067107;28;19931;-80
2021/09/11 07:46:42;;;;;;;;;;;;;;;;;;5066209;28;19932;-81
2021/09/11 07:49:10;;;;;;;;;;;;;;;;;;5058855;28;19928;-81
2021/09/11 07:51:39;;;;;;;;;;;;;;;;;;5062739;28;19939;-79
2021/09/11 07:54:08;;;;;;;;;;;;;;;;;;5097032;27;19924;-81
2021/09/11 07:56:36;;;;;;;;;;;;;;;;;;5081622;28;19932;-81
2021/09/11 07:59:04;;;;;;;;;;;;;;;;;;5084695;28;19932;-82
2021/09/11 08:01:34;;;;;;;;;;;;;;;;;;5057540;28;19928;-82
2021/09/11 08:04:05;;;;;;;;;;;;;;;;;;5059749;28;19936;-82
2021/09/11 08:06:33;;;;;;;;;;;;;;;;;;5074760;28;20416;-85
2021/09/11 08:09:01;;;;;;;;;;;;;;;;;;5084826;28;19924;-87
2021/09/11 08:11:29;;;;;;;;;;;;;;;;;;5073494;28;20217;-85
2021/09/11 08:13:57;;;;;;;;;;;;;;;;;;5087384;28;19939;-84
2021/09/11 08:16:26;;;;;;;;;;;;;;;;;;5092170;28;19943;-84
2021/09/11 08:18:54;;;;;;;;;;;;;;;;;;5083280;28;20294;-83
2021/09/11 08:21:24;;;;;;;;;;;;;;;;;;5085620;28;19928;-84
2021/09/11 08:23:52;;;;;;;;;;;;;;;;;;5102058;28;19918;-83
2021/09/11 08:26:20;;;;;;;;;;;;;;;;;;5111275;28;19920;-84
2021/09/11 08:28:51;;;;;;;;;;;;;;;;;;5078937;28;20374;-85
2021/09/11 08:31:20;;;;;;;;;;;;;;;;;;5090259;28;20294;-84
2021/09/11 08:33:48;;;;;;;;;;;;;;;;;;5066473;28;19924;-86
2021/09/11 08:36:17;;;;;;;;;;;;;;;;;;5089726;28;19924;-86
2021/09/11 08:38:47;;;;;;;;;;;;;;;;;;5088077;28;19925;-85
2021/09/11 08:41:15;;;;;;;;;;;;;;;;;;5067513;28;19924;-86
2021/09/11 08:43:43;;;;;;;;;;;;;;;;;;5071803;28;19928;-87
2021/09/11 08:46:11;;;;;;;;;;;;;;;;;;5076305;28;19924;-88
2021/09/11 08:48:40;;;;;;;;;;;;;;;;;;5082654;28;19924;-86
2021/09/11 08:51:08;;;;;;;;;;;;;;;;;;5068490;28;19923;-86
2021/09/11 08:53:37;;;;;;;;;;;;;;;;;;5086611;28;21563;-87
2021/09/11 08:56:06;;;;;;;;;;;;;;;;;;5082761;28;19931;-84
2021/09/11 08:58:35;;;;;;;;;;;;;;;;;;5092397;28;19924;-86
2021/09/11 09:01:03;;;;;;;;;;;;;;;;;;5082308;28;19924;-83
2021/09/11 09:03:36;;;;;;;;;;;;;;;;;;5097301;28;19947;-85
2021/09/11 09:06:16;;;;;;;;;;;;;;;;;;5089904;28;19931;-86
2021/09/11 09:08:45;;;;;;;;;;;;;;;;;;5082768;28;19924;-85
2021/09/11 09:11:19;;;;;;;;;;;;;;;;;;5066575;28;19924;-85
2021/09/11 09:13:54;;;;;;;;;;;;;;;;;;5076775;28;19935;-86
2021/09/11 09:16:23;;;;;;;;;;;;;;;;;;5081344;28;19924;-85
2021/09/11 09:18:51;;;;;;;;;;;;;;;;;;5087794;28;19932;-86
2021/09/11 09:21:21;;;;;;;;;;;;;;;;;;5068960;28;19924;-83
2021/09/11 09:23:49;;;;;;;;;;;;;;;;;;5080345;28;19928;-86
2021/09/11 09:26:19;;;;;;;;;;;;;;;;;;5084917;28;19950;-85
2021/09/11 09:28:58;;;;;;;;;;;;;;;;;;5066285;28;20413;-85
2021/09/11 09:31:27;;;;;;;;;;;;;;;;;;5065983;28;20010;-86
2021/09/11 09:33:55;;;;;;;;;;;;;;;;;;5088262;28;19924;-85
2021/09/11 09:36:23;;;;;;;;;;;;;;;;;;5084403;28;19924;-84
2021/09/11 09:38:58;;;;;;;;;;;;;;;;;;5068584;28;19932;-86
2021/09/11 09:41:28;;;;;;;;;;;;;;;;;;5072889;28;20274;-84
2021/09/11 09:43:56;;;;;;;;;;;;;;;;;;5079168;28;19928;-87
2021/09/11 09:46:24;;;;;;;;;;;;;;;;;;5080724;28;20116;-86
2021/09/11 09:48:53;;;;;;;;;;;;;;;;;;5065227;28;19924;-84
2021/09/11 09:51:22;;;;;;;;;;;;;;;;;;5062572;28;20317;-85
2021/09/11 09:53:50;;;;;;;;;;;;;;;;;;5080164;28;19928;-86
2021/09/11 09:56:18;;;;;;;;;;;;;;;;;;5058495;28;19943;-85
2021/09/11 09:58:48;;;;;;;;;;;;;;;;;;5065693;28;19928;-86
2021/09/11 10:01:16;;;;;;;;;;;;;;;;;;5070949;28;19924;-86
2021/09/11 10:03:45;;;;;;;;;;;;;;;;;;5087858;28;19924;-86
2021/09/11 10:06:15;;;;;;;;;;;;;;;;;;5066738;28;19935;-85
2021/09/11 10:08:50;;;;;;;;;;;;;;;;;;5066592;28;20388;-84
2021/09/11 10:11:33;;;;;;;;;;;;;;;;;;5092232;28;19915;-83
2021/09/11 10:14:04;;;;;;;;;;;;;;;;;;5087648;28;19920;-83
2021/09/11 10:16:33;;;;;;;;;;;;;;;;;;5101687;28;19925;-85
2021/09/11 10:19:15;;;;;;;;;;;;;;;;;;5083331;28;20613;-83
2021/09/11 10:21:43;;;;;;;;;;;;;;;;;;5063437;28;19924;-85
2021/09/11 10:24:31;;;;;;;;;;;;;;;;;;5104362;28;20010;-82
2021/09/11 10:27:01;;;;;;;;;;;;;;;;;;5108320;28;20005;-83
2021/09/11 10:29:51;;;;;;;;;;;;;;;;;;5103698;28;19924;-84
2021/09/11 10:32:21;;;;;;;;;;;;;;;;;;5074759;28;19924;-84
2021/09/11 10:34:51;;;;;;;;;;;;;;;;;;5090857;28;19947;-85
2021/09/11 10:37:24;;;;;;;;;;;;;;;;;;5072605;28;19924;-85
2021/09/11 10:40:11;;;;;;;;;;;;;;;;;;5072341;28;19939;-85
2021/09/11 10:42:54;;;;;;;;;;;;;;;;;;5073736;28;20382;-86
2021/09/11 10:45:37;;;;;;;;;;;;;;;;;;5073961;28;20314;-86
2021/09/11 10:48:07;;;;;;;;;;;;;;;;;;5070708;28;19924;-85
2021/09/11 10:50:38;;;;;;;;;;;;;;;;;;5111616;28;19908;-83
2021/09/11 10:53:19;;;;;;;;;;;;;;;;;;5111917;28;20337;-85
2021/09/11 10:55:48;;;;;;;;;;;;;;;;;;5086490;28;19924;-87
2021/09/11 10:58:23;;;;;;;;;;;;;;;;;;5065663;28;19925;-87
2021/09/11 11:00:58;;;;;;;;;;;;;;;;;;5085933;28;20368;-85
2021/09/11 11:03:28;;;;;;;;;;;;;;;;;;5104805;27;20128;-86
2021/09/11 11:06:00;;;;;;;;;;;;;;;;;;5112016;27;19925;-87
2021/09/11 11:08:29;;;;;;;;;;;;;;;;;;5073569;28;19931;-87
2021/09/11 11:10:57;;;;;;;;;;;;;;;;;;5065490;28;19925;-87
2021/09/11 11:13:26;;;;;;;;;;;;;;;;;;5070359;28;19925;-87
2021/09/11 11:15:54;;;;;;;;;;;;;;;;;;5062998;28;19928;-87
2021/09/11 11:18:23;;;;;;;;;;;;;;;;;;5073028;28;19931;-87
2021/09/11 11:20:53;;;;;;;;;;;;;;;;;;5070367;28;19932;-86
2021/09/11 11:23:22;;;;;;;;;;;;;;;;;;5074185;28;19932;-88
2021/09/11 11:25:50;;;;;;;;;;;;;;;;;;5068394;28;19931;-87
2021/09/11 11:28:19;;;;;;;;;;;;;;;;;;5071408;28;19931;-88
2021/09/11 11:30:50;;;;;;;;;;;;;;;;;;5068461;28;19935;-87
2021/09/11 11:33:19;;;;;;;;;;;;;;;;;;5072607;28;19939;-87
2021/09/11 11:35:47;;;;;;;;;;;;;;;;;;5077125;28;19932;-87
2021/09/11 11:38:18;;;;;;;;;;;;;;;;;;5080592;28;19924;-87
2021/09/11 11:40:46;;;;;;;;;;;;;;;;;;5088458;28;19924;-87
2021/09/11 11:43:15;;;;;;;;;;;;;;;;;;5072308;28;19924;-87
2021/09/11 11:45:45;;;;;;;;;;;;;;;;;;5071009;28;19928;-87
2021/09/11 11:48:16;;;;;;;;;;;;;;;;;;5066803;28;20316;-87
2021/09/11 11:50:46;;;;;;;;;;;;;;;;;;5069802;28;21280;-87
2021/09/11 11:53:14;;;;;;;;;;;;;;;;;;5072800;28;19939;-87
2021/09/11 11:55:49;;;;;;;;;;;;;;;;;;5107714;27;19931;-88
2021/09/11 11:58:18;;;;;;;;;;;;;;;;;;5073728;28;19955;-87
2021/09/11 12:00:47;;;;;;;;;;;;;;;;;;5095493;28;19932;-87
2021/09/11 12:03:35;;;;;;;;;;;;;;;;;;5082498;28;19932;-87
2021/09/11 12:06:04;;;;;;;;;;;;;;;;;;5086758;28;19932;-87
2021/09/11 12:08:36;;;;;;;;;;;;;;;;;;5087570;28;19924;-86
2021/09/11 12:11:06;;;;;;;;;;;;;;;;;;5088048;28;19928;-87
2021/09/11 12:13:35;;;;;;;;;;;;;;;;;;5068817;28;19931;-86
2021/09/11 12:16:03;;;;;;;;;;;;;;;;;;5070140;28;19928;-87
2021/09/11 12:18:33;;;;;;;;;;;;;;;;;;5085215;28;19924;-87
2021/09/11 12:21:07;;;;;;;;;;;;;;;;;;5065625;28;19924;-87
2021/09/11 12:23:37;;;;;;;;;;;;;;;;;;5066878;28;19931;-86
2021/09/11 12:26:07;;;;;;;;;;;;;;;;;;5064939;28;19931;-88
2021/09/11 12:28:45;;;;;;;;;;;;;;;;;;5070251;28;20310;-87
2021/09/11 12:31:16;;;;;;;;;;;;;;;;;;5062136;28;20321;-87
2021/09/11 12:33:47;;;;;;;;;;;;;;;;;;5061369;28;19932;-87
2021/09/11 12:36:19;;;;;;;;;;;;;;;;;;5063576;28;20396;-88
2021/09/11 12:38:48;;;;;;;;;;;;;;;;;;5069518;28;19935;-87
2021/09/11 12:41:18;;;;;;;;;;;;;;;;;;5068885;28;20299;-86
2021/09/11 12:43:46;;;;;;;;;;;;;;;;;;5093215;27;19943;-86
2021/09/11 12:46:26;;;;;;;;;;;;;;;;;;5064964;28;20224;-86
2021/09/11 12:48:56;;;;;;;;;;;;;;;;;;5083425;28;19924;-85
2021/09/11 12:51:27;;;;;;;;;;;;;;;;;;5068246;27;19932;-87
2021/09/11 12:53:56;;;;;;;;;;;;;;;;;;5081743;28;19924;-86
2021/09/11 12:56:25;;;;;;;;;;;;;;;;;;5067333;28;19932;-85
2021/09/11 12:58:54;;;;;;;;;;;;;;;;;;5072768;28;19932;-85
2021/09/11 13:01:23;;;;;;;;;;;;;;;;;;5085427;28;19936;-87
2021/09/11 13:03:52;;;;;;;;;;;;;;;;;;5067345;28;19932;-86
2021/09/11 13:06:21;;;;;;;;;;;;;;;;;;5089502;28;19932;-87
2021/09/11 13:08:50;;;;;;;;;;;;;;;;;;5069501;28;19931;-87
2021/09/11 13:11:18;;;;;;;;;;;;;;;;;;5077092;28;19924;-85
2021/09/11 13:13:48;;;;;;;;;;;;;;;;;;5067454;28;20333;-87
2021/09/11 13:16:17;;;;;;;;;;;;;;;;;;5093072;28;19924;-86
2021/09/11 13:18:45;;;;;;;;;;;;;;;;;;5079598;28;20661;-85
2021/09/11 13:21:14;;;;;;;;;;;;;;;;;;5083237;28;19924;-86
2021/09/11 13:23:46;;;;;;;;;;;;;;;;;;5090968;28;19932;-87
2021/09/11 13:26:15;;;;;;;;;;;;;;;;;;5079722;28;19924;-86
2021/09/11 13:28:45;;;;;;;;;;;;;;;;;;5070754;28;19924;-85
2021/09/11 13:31:15;;;;;;;;;;;;;;;;;;5081046;28;20378;-86
2021/09/11 13:33:48;;;;;;;;;;;;;;;;;;5070685;28;20107;-88
2021/09/11 13:36:16;;;;;;;;;;;;;;;;;;5080054;28;20417;-88
2021/09/11 13:38:45;;;;;;;;;;;;;;;;;;5078256;28;19932;-85
2021/09/11 13:41:16;;;;;;;;;;;;;;;;;;5066635;28;19924;-86
2021/09/11 13:43:45;;;;;;;;;;;;;;;;;;5070281;28;19933;-87
2021/09/11 13:46:15;;;;;;;;;;;;;;;;;;5061226;28;19956;-87
2021/09/11 13:48:44;;;;;;;;;;;;;;;;;;5081801;28;19932;-89
2021/09/11 13:51:13;;;;;;;;;;;;;;;;;;5066484;28;19945;-89
2021/09/11 13:53:41;;;;;;;;;;;;;;;;;;5066972;28;19924;-86
2021/09/11 13:56:10;;;;;;;;;;;;;;;;;;5090578;28;19928;-86
2021/09/11 13:58:39;;;;;;;;;;;;;;;;;;5096705;28;20129;-85
2021/09/11 14:01:09;;;;;;;;;;;;;;;;;;5105062;27;19932;-88
2021/09/11 14:03:48;;;;;;;;;;;;;;;;;;5074972;28;19932;-88
2021/09/11 14:06:18;;;;;;;;;;;;;;;;;;5077239;28;19939;-86
2021/09/11 14:08:47;;;;;;;;;;;;;;;;;;5078353;28;19935;-84
2021/09/11 14:11:15;;;;;;;;;;;;;;;;;;5086871;28;19932;-84
2021/09/11 14:13:43;;;;;;;;;;;;;;;;;;5081260;28;20410;-87
2021/09/11 14:16:15;;;;;;;;;;;;;;;;;;5075794;28;19939;-89
2021/09/11 14:18:46;;;;;;;;;;;;;;;;;;5076137;28;19940;-87
2021/09/11 14:21:15;;;;;;;;;;;;;;;;;;5096535;28;19935;-87
2021/09/11 14:23:50;;;;;;;;;;;;;;;;;;5090943;28;19931;-88
2021/09/11 14:26:43;;;;;;;;;;;;;;;;;;5086582;28;19931;-86
2021/09/11 14:29:14;;;;;;;;;;;;;;;;;;5092442;28;20071;-88
2021/09/11 14:31:44;;;;;;;;;;;;;;;;;;5092235;28;19932;-86
2021/09/11 14:34:17;;;;;;;;;;;;;;;;;;5090134;28;19924;-88
2021/09/11 14:36:47;;;;;;;;;;;;;;;;;;5095055;28;20306;-89
2021/09/11 14:39:16;;;;;;;;;;;;;;;;;;5110108;27;19931;-86
2021/09/11 14:41:44;;;;;;;;;;;;;;;;;;5085497;28;19928;-86
2021/09/11 14:44:13;;;;;;;;;;;;;;;;;;5086396;28;19912;-88
2021/09/11 14:46:41;;;;;;;;;;;;;;;;;;5106706;28;20662;-92
2021/09/11 14:49:09;;;;;;;;;;;;;;;;;;5093175;28;19912;-93
2021/09/11 14:51:38;;;;;;;;;;;;;;;;;;5092455;28;19920;-92
2021/09/11 14:54:08;;;;;;;;;;;;;;;;;;5101458;28;19929;-87
2021/09/11 14:56:37;;;;;;;;;;;;;;;;;;5086732;28;19943;-87
2021/09/11 14:59:05;;;;;;;;;;;;;;;;;;5104576;28;19924;-90
2021/09/11 15:01:34;;;;;;;;;;;;;;;;;;5105648;28;19924;-88
2021/09/11 15:04:04;;;;;;;;;;;;;;;;;;5099548;28;19951;-88
2021/09/11 15:06:32;;;;;;;;;;;;;;;;;;5102226;28;19914;-89
2021/09/11 15:09:00;;;;;;;;;;;;;;;;;;5104510;28;19923;-90
2021/09/11 15:11:30;;;;;;;;;;;;;;;;;;5085636;28;19932;-87
2021/09/11 15:13:59;;;;;;;;;;;;;;;;;;5096591;28;19932;-86
2021/09/11 15:16:27;;;;;;;;;;;;;;;;;;5101797;28;20098;-88
2021/09/11 15:18:57;;;;;;;;;;;;;;;;;;5083131;28;20006;-87
2021/09/11 15:21:28;;;;;;;;;;;;;;;;;;5091863;28;19932;-86
2021/09/11 15:23:56;;;;;;;;;;;;;;;;;;5078423;28;20381;-89
2021/09/11 15:26:25;;;;;;;;;;;;;;;;;;5073340;28;19955;-89
2021/09/11 15:28:56;;;;;;;;;;;;;;;;;;5084128;28;19932;-86
2021/09/11 15:31:25;;;;;;;;;;;;;;;;;;5100690;28;19931;-85
2021/09/11 15:33:54;;;;;;;;;;;;;;;;;;5082039;28;19931;-84
2021/09/11 15:36:22;;;;;;;;;;;;;;;;;;5072910;28;19999;-86
2021/09/11 15:38:51;;;;;;;;;;;;;;;;;;5083455;28;19924;-85
2021/09/11 15:41:19;;;;;;;;;;;;;;;;;;5082498;28;19924;-85
2021/09/11 15:43:47;;;;;;;;;;;;;;;;;;5084721;28;19912;-88
2021/09/11 15:46:17;;;;;;;;;;;;;;;;;;5109639;28;19908;-90
2021/09/11 15:48:45;;;;;;;;;;;;;;;;;;5088297;28;19939;-84
2021/09/11 15:51:16;;;;;;;;;;;;;;;;;;5112834;28;19931;-87
2021/09/11 15:53:44;;;;;;;;;;;;;;;;;;5091841;28;19935;-85
2021/09/11 15:56:14;;;;;;;;;;;;;;;;;;5075418;28;19934;-86
2021/09/11 15:58:42;;;;;;;;;;;;;;;;;;5068174;28;19932;-86
2021/09/11 16:01:11;;;;;;;;;;;;;;;;;;5068717;28;19924;-85
2021/09/11 16:03:41;;;;;;;;;;;;;;;;;;5069328;28;19936;-87
2021/09/11 16:06:11;;;;;;;;;;;;;;;;;;5092060;28;19940;-85
2021/09/11 16:08:40;;;;;;;;;;;;;;;;;;5076433;28;19924;-86
2021/09/11 16:11:09;;;;;;;;;;;;;;;;;;5089082;28;19923;-86
2021/09/11 16:13:39;;;;;;;;;;;;;;;;;;5083740;28;19939;-84
2021/09/11 16:16:07;;;;;;;;;;;;;;;;;;5110955;27;19924;-86
2021/09/11 16:18:35;;;;;;;;;;;;;;;;;;5087627;28;20144;-86
2021/09/11 16:21:06;;;;;;;;;;;;;;;;;;5071138;28;19924;-87
2021/09/11 16:23:34;;;;;;;;;;;;;;;;;;5069713;28;19924;-89
2021/09/11 16:26:02;;;;;;;;;;;;;;;;;;5064781;28;19931;-88
2021/09/11 16:28:31;;;;;;;;;;;;;;;;;;5063133;28;19931;-85
2021/09/11 16:30:59;;;;;;;;;;;;;;;;;;5071420;28;19924;-90
2021/09/11 16:33:30;;;;;;;;;;;;;;;;;;5061177;28;22736;-89
2021/09/11 16:35:58;;;;;;;;;;;;;;;;;;5066364;28;19927;-87
2021/09/11 16:38:28;;;;;;;;;;;;;;;;;;5066065;28;20404;-89
2021/09/11 16:40:56;;;;;;;;;;;;;;;;;;5065913;28;19924;-86
2021/09/11 16:43:25;;;;;;;;;;;;;;;;;;5074811;28;19931;-88
2021/09/11 16:45:54;;;;;;;;;;;;;;;;;;5073078;28;19943;-88
2021/09/11 16:48:22;;;;;;;;;;;;;;;;;;5076571;28;19974;-86
2021/09/11 16:50:51;;;;;;;;;;;;;;;;;;5068841;28;20511;-84
2021/09/11 16:53:21;;;;;;;;;;;;;;;;;;5074281;28;19931;-87
2021/09/11 16:55:51;;;;;;;;;;;;;;;;;;5060796;28;20313;-86
2021/09/11 16:58:19;;;;;;;;;;;;;;;;;;5070211;28;20381;-88
2021/09/11 17:00:47;;;;;;;;;;;;;;;;;;5066943;28;19939;-89